SnowmanRWIS Atmospheric Data: 07/12/2019 Summary  Detailed Graphs  Station List

  Temperature     Wind Precipitation Visibility
Timestamp Air Wet
Bulb
Dew-
point
24-hr
Max
24-hr
Min
Relative
Humidity
Atmospheric
Pressure
Avg
Speed
Avg
Dir
Spot
Speed
Spot
Dir
Max
Speed
Max
Dir
  Rate Situation Start End 1 hr 3 hr 6 hr 12 hr 24 hr   Situation
Date Time °F °F °F °F °F % in Hg mph ° mph ° mph ° Y/N in/hr text Date Time Date Time in in in in in mi text
07/12/2019 12:03 AM 59.18 54.50 50.90 81.14 50.72 74.0 Not Reported 0.89 W 1.34 W 1.57 W No 0.000 No Precipitation 06/26/2019 04:37 PM 06/26/2019 04:55 PM 0.000 0.000 0.000 0.000 0.000 Not Reported Not Reported
07/12/2019 12:08 AM 58.82 54.32 50.90 81.14 50.72 74.0 Not Reported 1.12 W 1.34 W 1.57 W No 0.000 No Precipitation 06/26/2019 04:37 PM 06/26/2019 04:55 PM 0.000 0.000 0.000 0.000 0.000 Not Reported Not Reported
07/12/2019 12:13 AM 58.64 54.32 50.90 81.14 50.72 75.0 Not Reported 1.34 W 1.34 W 1.34 W No 0.000 No Precipitation 06/26/2019 04:37 PM 06/26/2019 04:55 PM 0.000 0.000 0.000 0.000 0.000 Not Reported Not Reported
07/12/2019 12:18 AM 58.46 53.96 50.54 81.14 50.72 75.0 Not Reported 1.34 W 1.57 W 1.34 W No 0.000 No Precipitation 06/26/2019 04:37 PM 06/26/2019 04:55 PM 0.000 0.000 0.000 0.000 0.000 Not Reported Not Reported
07/12/2019 12:23 AM 58.28 53.96 50.54 81.14 50.72 75.0 Not Reported 1.34 W 1.34 W 1.57 W No 0.000 No Precipitation 06/26/2019 04:37 PM 06/26/2019 04:55 PM 0.000 0.000 0.000 0.000 0.000 Not Reported Not Reported
07/12/2019 12:28 AM 58.10 53.78 50.54 81.14 50.72 75.0 Not Reported 1.34 W 1.34 W 1.57 W No 0.000 No Precipitation 06/26/2019 04:37 PM 06/26/2019 04:55 PM 0.000 0.000 0.000 0.000 0.000 Not Reported Not Reported
07/12/2019 12:33 AM 57.92 53.78 50.54 81.14 50.72 76.0 Not Reported 1.12 W 1.34 W 1.57 W No 0.000 No Precipitation 06/26/2019 04:37 PM 06/26/2019 04:55 PM 0.000 0.000 0.000 0.000 0.000 Not Reported Not Reported
07/12/2019 12:38 AM 58.10 53.78 50.36 81.14 50.72 75.0 Not Reported 1.57 SW 1.34 SW 1.57 W No 0.000 No Precipitation 06/26/2019 04:37 PM 06/26/2019 04:55 PM 0.000 0.000 0.000 0.000 0.000 Not Reported Not Reported
07/12/2019 12:43 AM 57.92 53.60 50.36 81.14 50.72 76.0 Not Reported 1.12 W 0.89 W 1.79 SW No 0.000 No Precipitation 06/26/2019 04:37 PM 06/26/2019 04:55 PM 0.000 0.000 0.000 0.000 0.000 Not Reported Not Reported
07/12/2019 12:48 AM 57.74 53.78 50.54 81.14 50.72 76.0 Not Reported 1.34 W 1.12 W 1.79 SW No 0.000 No Precipitation 06/26/2019 04:37 PM 06/26/2019 04:55 PM 0.000 0.000 0.000 0.000 0.000 Not Reported Not Reported
07/12/2019 12:53 AM 57.74 53.60 50.72 81.14 50.72 77.0 Not Reported 0.89 W 1.12 W 1.57 W No 0.000 No Precipitation 06/26/2019 04:37 PM 06/26/2019 04:55 PM 0.000 0.000 0.000 0.000 0.000 Not Reported Not Reported
07/12/2019 12:58 AM 57.38 53.42 50.36 81.14 50.72 77.0 Not Reported 1.12 W 1.34 W 1.57 W No 0.000 No Precipitation 06/26/2019 04:37 PM 06/26/2019 04:55 PM 0.000 0.000 0.000 0.000 0.000 Not Reported Not Reported
07/12/2019 01:03 AM 57.38 53.24 50.18 81.14 50.72 76.0 Not Reported 2.01 W 1.79 W 1.57 W No 0.000 No Precipitation 06/26/2019 04:37 PM 06/26/2019 04:55 PM 0.000 0.000 0.000 0.000 0.000 Not Reported Not Reported
07/12/2019 01:08 AM 57.38 53.24 50.18 81.14 50.72 76.0 Not Reported 2.01 W 1.57 W 1.57 W No 0.000 No Precipitation 06/26/2019 04:37 PM 06/26/2019 04:55 PM 0.000 0.000 0.000 0.000 0.000 Not Reported Not Reported
07/12/2019 01:13 AM 57.20 53.06 50.00 81.14 50.72 76.0 Not Reported 2.01 W 2.01 W 2.46 W No 0.000 No Precipitation 06/26/2019 04:37 PM 06/26/2019 04:55 PM 0.000 0.000 0.000 0.000 0.000 Not Reported Not Reported
07/12/2019 01:18 AM 57.38 53.24 50.18 81.14 50.72 77.0 Not Reported 1.79 W 1.79 W 2.46 W No 0.000 No Precipitation 06/26/2019 04:37 PM 06/26/2019 04:55 PM 0.000 0.000 0.000 0.000 0.000 Not Reported Not Reported
07/12/2019 01:23 AM 57.20 53.24 50.18 81.14 50.72 77.0 Not Reported 1.79 W 2.01 W 2.24 W No 0.000 No Precipitation 06/26/2019 04:37 PM 06/26/2019 04:55 PM 0.000 0.000 0.000 0.000 0.000 Not Reported Not Reported
07/12/2019 01:28 AM 57.20 53.24 50.18 81.14 50.72 77.0 Not Reported 2.24 W 2.46 W 2.24 W No 0.000 No Precipitation 06/26/2019 04:37 PM 06/26/2019 04:55 PM 0.000 0.000 0.000 0.000 0.000 Not Reported Not Reported
07/12/2019 01:33 AM 57.20 53.24 50.18 81.14 50.72 77.0 Not Reported 2.24 W 2.01 W 2.68 W No 0.000 No Precipitation 06/26/2019 04:37 PM 06/26/2019 04:55 PM 0.000 0.000 0.000 0.000 0.000 Not Reported Not Reported
07/12/2019 01:38 AM 57.20 53.24 50.00 81.14 50.72 77.0 Not Reported 2.24 W 2.24 W 2.68 W No 0.000 No Precipitation 06/26/2019 04:37 PM 06/26/2019 04:55 PM 0.000 0.000 0.000 0.000 0.000 Not Reported Not Reported
07/12/2019 01:43 AM 57.02 53.06 50.00 81.14 50.72 77.0 Not Reported 2.01 W 2.46 W 2.46 W No 0.000 No Precipitation 06/26/2019 04:37 PM 06/26/2019 04:55 PM 0.000 0.000 0.000 0.000 0.000 Not Reported Not Reported
07/12/2019 01:48 AM 57.20 53.06 50.00 81.14 50.72 76.0 Not Reported 2.24 W 2.01 W 2.46 W No 0.000 No Precipitation 06/26/2019 04:37 PM 06/26/2019 04:55 PM 0.000 0.000 0.000 0.000 0.000 Not Reported Not Reported
07/12/2019 01:53 AM 57.02 52.88 49.64 81.14 50.72 76.0 Not Reported 2.46 W 2.46 W 3.13 W No 0.000 No Precipitation 06/26/2019 04:37 PM 06/26/2019 04:55 PM 0.000 0.000 0.000 0.000 0.000 Not Reported Not Reported
07/12/2019 01:58 AM 57.02 52.88 49.64 81.14 50.72 76.0 Not Reported 2.01 W 2.24 W 3.13 W No 0.000 No Precipitation 06/26/2019 04:37 PM 06/26/2019 04:55 PM 0.000 0.000 0.000 0.000 0.000 Not Reported Not Reported
07/12/2019 02:03 AM 57.02 52.88 49.64 81.14 50.72 76.0 Not Reported 2.46 W 2.91 W 2.91 W No 0.000 No Precipitation 06/26/2019 04:37 PM 06/26/2019 04:55 PM 0.000 0.000 0.000 0.000 0.000 Not Reported Not Reported
07/12/2019 02:08 AM 56.84 52.88 49.82 81.14 50.72 77.0 Not Reported 2.24 W 2.24 W 2.91 W No 0.000 No Precipitation 06/26/2019 04:37 PM 06/26/2019 04:55 PM 0.000 0.000 0.000 0.000 0.000 Not Reported Not Reported
07/12/2019 02:13 AM 56.84 52.88 49.82 81.14 50.72 77.0 Not Reported 2.24 W 2.46 SW 3.13 W No 0.000 No Precipitation 06/26/2019 04:37 PM 06/26/2019 04:55 PM 0.000 0.000 0.000 0.000 0.000 Not Reported Not Reported
07/12/2019 02:18 AM 56.84 52.88 49.82 81.14 50.72 77.0 Not Reported 2.24 W 2.46 W 3.13 W No 0.000 No Precipitation 06/26/2019 04:37 PM 06/26/2019 04:55 PM 0.000 0.000 0.000 0.000 0.000 Not Reported Not Reported
07/12/2019 02:23 AM 56.66 52.70 49.46 81.14 50.72 76.0 Not Reported 1.79 W 2.01 W 2.91 W No 0.000 No Precipitation 06/26/2019 04:37 PM 06/26/2019 04:55 PM 0.000 0.000 0.000 0.000 0.000 Not Reported Not Reported
07/12/2019 02:28 AM 56.66 52.70 49.64 81.14 50.72 77.0 Not Reported 2.01 W 2.24 W 2.91 W No 0.000 No Precipitation 06/26/2019 04:37 PM 06/26/2019 04:55 PM 0.000 0.000 0.000 0.000 0.000 Not Reported Not Reported
07/12/2019 02:33 AM 56.30 52.52 49.46 81.14 50.72 77.0 Not Reported 1.79 W 2.24 W 2.24 W No 0.000 No Precipitation 06/26/2019 04:37 PM 06/26/2019 04:55 PM 0.000 0.000 0.000 0.000 0.000 Not Reported Not Reported
07/12/2019 02:38 AM 55.94 52.52 49.64 81.14 50.72 79.0 Not Reported 0.45 NW 0.67 NW 2.24 W No 0.000 No Precipitation 06/26/2019 04:37 PM 06/26/2019 04:55 PM 0.000 0.000 0.000 0.000 0.000 Not Reported Not Reported
07/12/2019 02:43 AM 55.94 52.34 49.82 81.14 50.72 80.0 Not Reported 0.45 NW 0.00 NW 2.24 W No 0.000 No Precipitation 06/26/2019 04:37 PM 06/26/2019 04:55 PM 0.000 0.000 0.000 0.000 0.000 Not Reported Not Reported
07/12/2019 02:48 AM 55.76 52.34 49.64 81.14 50.72 79.0 Not Reported 1.34 SW 1.12 SW 2.24 W No 0.000 No Precipitation 06/26/2019 04:37 PM 06/26/2019 04:55 PM 0.000 0.000 0.000 0.000 0.000 Not Reported Not Reported
07/12/2019 02:53 AM 55.58 52.34 49.64 81.14 50.72 80.0 Not Reported 0.89 SW 1.57 SW 1.57 SW No 0.000 No Precipitation 06/26/2019 04:37 PM 06/26/2019 04:55 PM 0.000 0.000 0.000 0.000 0.000 Not Reported Not Reported
07/12/2019 02:58 AM 55.22 51.98 49.46 81.14 50.72 80.0 Not Reported 0.89 NW 1.12 W 1.57 SW No 0.000 No Precipitation 06/26/2019 04:37 PM 06/26/2019 04:55 PM 0.000 0.000 0.000 0.000 0.000 Not Reported Not Reported
07/12/2019 03:03 AM 55.04 51.80 49.46 81.14 50.72 81.0 Not Reported 1.34 W 1.34 W 1.57 NW No 0.000 No Precipitation 06/26/2019 04:37 PM 06/26/2019 04:55 PM 0.000 0.000 0.000 0.000 0.000 Not Reported Not Reported
07/12/2019 03:08 AM 54.86 51.80 49.46 81.14 50.72 82.0 Not Reported 1.57 W 1.57 W 1.57 NW No 0.000 No Precipitation 06/26/2019 04:37 PM 06/26/2019 04:55 PM 0.000 0.000 0.000 0.000 0.000 Not Reported Not Reported
07/12/2019 03:13 AM 54.86 51.98 49.64 81.14 50.72 82.0 Not Reported 1.57 W 1.79 W 1.57 W No 0.000 No Precipitation 06/26/2019 04:37 PM 06/26/2019 04:55 PM 0.000 0.000 0.000 0.000 0.000 Not Reported Not Reported
07/12/2019 03:18 AM 54.50 51.62 49.28 81.14 50.72 82.0 Not Reported 1.34 W 1.34 W 1.57 W No 0.000 No Precipitation 06/26/2019 04:37 PM 06/26/2019 04:55 PM 0.000 0.000 0.000 0.000 0.000 Not Reported Not Reported
07/12/2019 03:23 AM 54.68 51.80 49.46 81.14 50.72 83.0 Not Reported 1.12 W 1.12 W 1.79 W No 0.000 No Precipitation 06/26/2019 04:37 PM 06/26/2019 04:55 PM 0.000 0.000 0.000 0.000 0.000 Not Reported Not Reported
07/12/2019 03:28 AM 54.32 51.62 49.46 81.14 50.72 83.0 Not Reported 1.57 W 1.57 W 1.79 W No 0.000 No Precipitation 06/26/2019 04:37 PM 06/26/2019 04:55 PM 0.000 0.000 0.000 0.000 0.000 Not Reported Not Reported
07/12/2019 03:33 AM 54.14 51.44 49.28 81.14 50.72 83.0 Not Reported 1.34 W 1.57 W 1.57 W No 0.000 No Precipitation 06/26/2019 04:37 PM 06/26/2019 04:55 PM 0.000 0.000 0.000 0.000 0.000 Not Reported Not Reported
07/12/2019 03:38 AM 54.14 51.62 49.64 81.14 50.72 84.0 Not Reported 1.57 W 1.79 W 1.57 W No 0.000 No Precipitation 06/26/2019 04:37 PM 06/26/2019 04:55 PM 0.000 0.000 0.000 0.000 0.000 Not Reported Not Reported
07/12/2019 03:43 AM 54.32 51.62 49.46 81.14 50.72 83.0 Not Reported 1.57 W 1.57 W 1.79 W No 0.000 No Precipitation 06/26/2019 04:37 PM 06/26/2019 04:55 PM 0.000 0.000 0.000 0.000 0.000 Not Reported Not Reported
07/12/2019 03:48 AM 53.96 51.44 49.28 81.14 50.72 83.0 Not Reported 1.57 W 1.57 W 1.79 W No 0.000 No Precipitation 06/26/2019 04:37 PM 06/26/2019 04:55 PM 0.000 0.000 0.000 0.000 0.000 Not Reported Not Reported
07/12/2019 03:53 AM 53.96 51.44 49.46 81.14 50.72 84.0 Not Reported 1.34 W 1.57 W 1.57 W No 0.000 No Precipitation 06/26/2019 04:37 PM 06/26/2019 04:55 PM 0.000 0.000 0.000 0.000 0.000 Not Reported Not Reported
07/12/2019 03:58 AM 53.60 51.26 49.28 81.14 50.72 84.0 Not Reported 1.79 W 2.01 W 1.57 W No 0.000 No Precipitation 06/26/2019 04:37 PM 06/26/2019 04:55 PM 0.000 0.000 0.000 0.000 0.000 Not Reported Not Reported
07/12/2019 04:03 AM 53.60 51.26 49.10 81.14 50.72 84.0 Not Reported 1.57 W 1.12 W 2.24 W No 0.000 No Precipitation 06/26/2019 04:37 PM 06/26/2019 04:55 PM 0.000 0.000 0.000 0.000 0.000 Not Reported Not Reported
07/12/2019 04:08 AM 53.78 51.26 49.46 81.14 50.72 85.0 Not Reported 1.57 W 1.79 W 2.24 W No 0.000 No Precipitation 06/26/2019 04:37 PM 06/26/2019 04:55 PM 0.000 0.000 0.000 0.000 0.000 Not Reported Not Reported
07/12/2019 04:13 AM 53.60 51.26 49.28 81.14 50.72 84.0 Not Reported 1.57 W 1.79 W 2.01 W No 0.000 No Precipitation 06/26/2019 04:37 PM 06/26/2019 04:55 PM 0.000 0.000 0.000 0.000 0.000 Not Reported Not Reported
07/12/2019 04:18 AM 53.60 51.26 49.46 81.14 50.72 85.0 Not Reported 1.57 W 1.57 W 2.01 W No 0.000 No Precipitation 06/26/2019 04:37 PM 06/26/2019 04:55 PM 0.000 0.000 0.000 0.000 0.000 Not Reported Not Reported
07/12/2019 04:23 AM 53.42 51.26 49.28 81.14 50.72 85.0 Not Reported 2.01 W 1.79 W 1.79 W No 0.000 No Precipitation 06/26/2019 04:37 PM 06/26/2019 04:55 PM 0.000 0.000 0.000 0.000 0.000 Not Reported Not Reported
07/12/2019 04:28 AM 53.24 51.08 49.10 81.14 50.72 85.0 Not Reported 1.34 W 1.12 W 1.79 W No 0.000 No Precipitation 06/26/2019 04:37 PM 06/26/2019 04:55 PM 0.000 0.000 0.000 0.000 0.000 Not Reported Not Reported
07/12/2019 04:33 AM 53.24 50.90 49.10 81.14 50.72 85.0 Not Reported 1.57 W 1.79 W 2.01 W No 0.000 No Precipitation 06/26/2019 04:37 PM 06/26/2019 04:55 PM 0.000 0.000 0.000 0.000 0.000 Not Reported Not Reported
07/12/2019 04:38 AM 53.06 50.90 49.10 81.14 50.72 86.0 Not Reported 1.57 W 1.34 W 2.01 W No 0.000 No Precipitation 06/26/2019 04:37 PM 06/26/2019 04:55 PM 0.000 0.000 0.000 0.000 0.000 Not Reported Not Reported
07/12/2019 04:43 AM 53.06 50.90 49.10 81.14 50.72 86.0 Not Reported 1.57 W 1.34 W 1.79 W No 0.000 No Precipitation 06/26/2019 04:37 PM 06/26/2019 04:55 PM 0.000 0.000 0.000 0.000 0.000 Not Reported Not Reported
07/12/2019 04:48 AM 52.88 50.72 49.10 81.14 50.72 86.0 Not Reported 0.89 W 0.89 W 1.79 W No 0.000 No Precipitation 06/26/2019 04:37 PM 06/26/2019 04:55 PM 0.000 0.000 0.000 0.000 0.000 Not Reported Not Reported
07/12/2019 04:53 AM 52.70 50.54 48.74 81.14 50.72 86.0 Not Reported 1.57 W 1.34 W 1.79 W No 0.000 No Precipitation 06/26/2019 04:37 PM 06/26/2019 04:55 PM 0.000 0.000 0.000 0.000 0.000 Not Reported Not Reported
07/12/2019 04:58 AM 52.70 50.72 48.92 81.14 50.72 87.0 Not Reported 1.34 W 1.34 W 1.79 W No 0.000 No Precipitation 06/26/2019 04:37 PM 06/26/2019 04:55 PM 0.000 0.000 0.000 0.000 0.000 Not Reported Not Reported
07/12/2019 05:03 AM 52.70 50.54 48.92 81.14 50.72 87.0 Not Reported 1.12 W 1.12 W 1.79 W No 0.000 No Precipitation 06/26/2019 04:37 PM 06/26/2019 04:55 PM 0.000 0.000 0.000 0.000 0.000 Not Reported Not Reported
07/12/2019 05:08 AM 52.34 50.54 48.74 81.14 50.72 87.0 Not Reported 1.12 W 0.89 W 1.79 W No 0.000 No Precipitation 06/26/2019 04:37 PM 06/26/2019 04:55 PM 0.000 0.000 0.000 0.000 0.000 Not Reported Not Reported
07/12/2019 05:13 AM 52.34 50.36 48.74 81.14 50.72 87.0 Not Reported 0.00 W 0.00 W 1.34 W No 0.000 No Precipitation 06/26/2019 04:37 PM 06/26/2019 04:55 PM 0.000 0.000 0.000 0.000 0.000 Not Reported Not Reported
07/12/2019 05:18 AM 52.34 50.18 48.38 81.14 50.72 86.0 Not Reported 0.00 N 0.00 W 1.34 W No 0.000 No Precipitation 06/26/2019 04:37 PM 06/26/2019 04:55 PM 0.000 0.000 0.000 0.000 0.000 Not Reported Not Reported
07/12/2019 05:23 AM 52.70 50.72 49.10 81.14 50.72 87.0 Not Reported 0.00 N 0.00 W 0.45 W No 0.000 No Precipitation 06/26/2019 04:37 PM 06/26/2019 04:55 PM 0.000 0.000 0.000 0.000 0.000 Not Reported Not Reported
07/12/2019 05:28 AM 52.52 50.36 48.56 81.14 50.90 86.0 Not Reported 0.00 N 0.00 W 0.45 W No 0.000 No Precipitation 06/26/2019 04:37 PM 06/26/2019 04:55 PM 0.000 0.000 0.000 0.000 0.000 Not Reported Not Reported
07/12/2019 05:33 AM 52.34 50.54 48.74 81.14 50.90 87.0 Not Reported 0.89 W 0.89 W 0.67 W No 0.000 No Precipitation 06/26/2019 04:37 PM 06/26/2019 04:55 PM 0.000 0.000 0.000 0.000 0.000 Not Reported Not Reported
07/12/2019 05:38 AM 52.34 50.36 48.74 81.14 50.90 87.0 Not Reported 0.89 W 0.89 W 0.67 W No 0.000 No Precipitation 06/26/2019 04:37 PM 06/26/2019 04:55 PM 0.000 0.000 0.000 0.000 0.000 Not Reported Not Reported
07/12/2019 05:43 AM 52.34 50.36 48.74 81.14 50.90 87.0 Not Reported 0.22 W 0.45 W 1.12 W No 0.000 No Precipitation 06/26/2019 04:37 PM 06/26/2019 04:55 PM 0.000 0.000 0.000 0.000 0.000 Not Reported Not Reported
07/12/2019 05:48 AM 52.16 50.18 48.56 81.14 50.90 87.0 Not Reported 0.00 N 0.00 W 1.12 W No 0.000 No Precipitation 06/26/2019 04:37 PM 06/26/2019 04:55 PM 0.000 0.000 0.000 0.000 0.000 Not Reported Not Reported
07/12/2019 05:53 AM 52.16 50.36 48.56 81.14 50.90 87.0 Not Reported 0.45 W 0.67 W 0.45 W No 0.000 No Precipitation 06/26/2019 04:37 PM 06/26/2019 04:55 PM 0.000 0.000 0.000 0.000 0.000 Not Reported Not Reported
07/12/2019 05:58 AM 52.16 50.18 48.56 81.14 50.90 87.0 Not Reported 1.12 W 0.89 W 0.45 W No 0.000 No Precipitation 06/26/2019 04:37 PM 06/26/2019 04:55 PM 0.000 0.000 0.000 0.000 0.000 Not Reported Not Reported
07/12/2019 06:03 AM 52.16 50.18 48.56 81.14 50.90 87.0 Not Reported 0.89 W 0.89 W 1.12 W No 0.000 No Precipitation 06/26/2019 04:37 PM 06/26/2019 04:55 PM 0.000 0.000 0.000 0.000 0.000 Not Reported Not Reported
07/12/2019 06:08 AM 51.98 50.18 48.56 81.14 50.90 88.0 Not Reported 1.12 W 0.89 W 1.12 W No 0.000 No Precipitation 06/26/2019 04:37 PM 06/26/2019 04:55 PM 0.000 0.000 0.000 0.000 0.000 Not Reported Not Reported
07/12/2019 06:13 AM 52.16 50.18 48.74 81.14 50.90 88.0 Not Reported 0.67 W 0.67 W 1.34 W No 0.000 No Precipitation 06/26/2019 04:37 PM 06/26/2019 04:55 PM 0.000 0.000 0.000 0.000 0.000 Not Reported Not Reported
07/12/2019 06:18 AM 51.98 50.18 48.74 81.14 51.08 88.0 Not Reported 0.89 W 1.12 W 1.34 W No 0.000 No Precipitation 06/26/2019 04:37 PM 06/26/2019 04:55 PM 0.000 0.000 0.000 0.000 0.000 Not Reported Not Reported
07/12/2019 06:23 AM 51.98 50.18 48.74 81.14 51.08 88.0 Not Reported 1.12 W 1.12 W 1.34 W No 0.000 No Precipitation 06/26/2019 04:37 PM 06/26/2019 04:55 PM 0.000 0.000 0.000 0.000 0.000 Not Reported Not Reported
07/12/2019 06:28 AM 51.80 50.00 48.56 81.14 51.62 88.0 Not Reported 1.34 W 1.34 W 1.34 W No 0.000 No Precipitation 06/26/2019 04:37 PM 06/26/2019 04:55 PM 0.000 0.000 0.000 0.000 0.000 Not Reported Not Reported
07/12/2019 06:33 AM 51.80 50.00 48.56 81.14 51.80 88.0 Not Reported 1.12 W 1.12 W 1.57 W No 0.000 No Precipitation 06/26/2019 04:37 PM 06/26/2019 04:55 PM 0.000 0.000 0.000 0.000 0.000 Not Reported Not Reported
07/12/2019 06:38 AM 51.80 50.18 48.74 81.14 51.62 88.0 Not Reported 1.12 W 0.89 W 1.57 W No 0.000 No Precipitation 06/26/2019 04:37 PM 06/26/2019 04:55 PM 0.000 0.000 0.000 0.000 0.000 Not Reported Not Reported
07/12/2019 06:43 AM 51.62 49.82 48.38 81.14 51.62 88.0 Not Reported 1.12 W 0.45 W 1.57 W No 0.000 No Precipitation 06/26/2019 04:37 PM 06/26/2019 04:55 PM 0.000 0.000 0.000 0.000 0.000 Not Reported Not Reported
07/12/2019 06:48 AM 51.80 50.00 48.38 81.14 51.62 88.0 Not Reported 0.00 N 0.00 W 1.57 W No 0.000 No Precipitation 06/26/2019 04:37 PM 06/26/2019 04:55 PM 0.000 0.000 0.000 0.000 0.000 Not Reported Not Reported
07/12/2019 06:53 AM 51.62 50.00 48.38 81.14 51.62 88.0 Not Reported 0.67 W 0.67 W 1.34 W No 0.000 No Precipitation 06/26/2019 04:37 PM 06/26/2019 04:55 PM 0.000 0.000 0.000 0.000 0.000 Not Reported Not Reported
07/12/2019 06:58 AM 51.80 50.00 48.56 81.14 51.62 88.0 Not Reported 0.00 W 0.22 W 1.34 W No 0.000 No Precipitation 06/26/2019 04:37 PM 06/26/2019 04:55 PM 0.000 0.000 0.000 0.000 0.000 Not Reported Not Reported
07/12/2019 07:03 AM 51.80 50.00 48.56 81.14 51.62 88.0 Not Reported 0.00 N 0.00 W 0.89 W No 0.000 No Precipitation 06/26/2019 04:37 PM 06/26/2019 04:55 PM 0.000 0.000 0.000 0.000 0.000 Not Reported Not Reported
07/12/2019 07:08 AM 51.98 50.00 48.38 81.14 51.62 87.0 Not Reported 0.00 N 0.00 W 0.89 W No 0.000 No Precipitation 06/26/2019 04:37 PM 06/26/2019 04:55 PM 0.000 0.000 0.000 0.000 0.000 Not Reported Not Reported
07/12/2019 07:13 AM 52.16 50.00 48.38 81.14 51.62 86.0 Not Reported 0.00 N 0.00 W 0.00 W No 0.000 No Precipitation 06/26/2019 04:37 PM 06/26/2019 04:55 PM 0.000 0.000 0.000 0.000 0.000 Not Reported Not Reported
07/12/2019 07:18 AM 52.16 50.18 48.38 81.14 51.62 86.0 Not Reported 0.22 N 0.00 N 0.00 W No 0.000 No Precipitation 06/26/2019 04:37 PM 06/26/2019 04:55 PM 0.000 0.000 0.000 0.000 0.000 Not Reported Not Reported
07/12/2019 07:23 AM 52.34 50.18 48.38 81.14 51.62 86.0 Not Reported 0.00 N 0.00 N 0.67 N No 0.000 No Precipitation 06/26/2019 04:37 PM 06/26/2019 04:55 PM 0.000 0.000 0.000 0.000 0.000 Not Reported Not Reported
07/12/2019 07:28 AM 52.34 50.36 48.56 81.14 51.62 86.0 Not Reported 0.45 NW 0.89 NW 0.67 N No 0.000 No Precipitation 06/26/2019 04:37 PM 06/26/2019 04:55 PM 0.000 0.000 0.000 0.000 0.000 Not Reported Not Reported
07/12/2019 07:33 AM 52.34 50.36 48.74 81.14 51.62 87.0 Not Reported 0.89 NW 0.89 NW 1.12 NW No 0.000 No Precipitation 06/26/2019 04:37 PM 06/26/2019 04:55 PM 0.000 0.000 0.000 0.000 0.000 Not Reported Not Reported
07/12/2019 07:38 AM 52.52 50.36 48.74 81.14 51.62 86.0 Not Reported 0.67 NW 1.12 NW 1.12 NW No 0.000 No Precipitation 06/26/2019 04:37 PM 06/26/2019 04:55 PM 0.000 0.000 0.000 0.000 0.000 Not Reported Not Reported
07/12/2019 07:43 AM 52.70 50.72 49.10 81.14 51.62 87.0 Not Reported 0.67 NW 0.89 NW 1.12 NW No 0.000 No Precipitation 06/26/2019 04:37 PM 06/26/2019 04:55 PM 0.000 0.000 0.000 0.000 0.000 Not Reported Not Reported
07/12/2019 07:48 AM 53.06 51.08 49.46 81.14 51.62 87.0 Not Reported 0.67 W 0.45 W 1.12 NW No 0.000 No Precipitation 06/26/2019 04:37 PM 06/26/2019 04:55 PM 0.000 0.000 0.000 0.000 0.000 Not Reported Not Reported
07/12/2019 07:53 AM 53.24 51.08 49.28 81.14 51.62 86.0 Not Reported 0.45 W 0.00 NW 1.34 W No 0.000 No Precipitation 06/26/2019 04:37 PM 06/26/2019 04:55 PM 0.000 0.000 0.000 0.000 0.000 Not Reported Not Reported
07/12/2019 07:58 AM 53.60 51.44 49.82 81.14 51.62 86.0 Not Reported 0.22 N 0.00 N 1.34 W No 0.000 No Precipitation 06/26/2019 04:37 PM 06/26/2019 04:55 PM 0.000 0.000 0.000 0.000 0.000 Not Reported Not Reported
07/12/2019 08:03 AM 54.32 52.34 50.72 81.14 51.62 87.0 Not Reported 0.00 N 0.00 N 0.89 N No 0.000 No Precipitation 06/26/2019 04:37 PM 06/26/2019 04:55 PM 0.000 0.000 0.000 0.000 0.000 Not Reported Not Reported
07/12/2019 08:08 AM 55.22 52.88 51.08 81.14 51.62 85.0 Not Reported 0.00 N 0.00 N 0.89 N No 0.000 No Precipitation 06/26/2019 04:37 PM 06/26/2019 04:55 PM 0.000 0.000 0.000 0.000 0.000 Not Reported Not Reported
07/12/2019 08:13 AM 55.94 53.60 51.80 81.14 51.62 86.0 Not Reported 0.00 N 0.00 N 0.00 N No 0.000 No Precipitation 06/26/2019 04:37 PM 06/26/2019 04:55 PM 0.000 0.000 0.000 0.000 0.000 Not Reported Not Reported
07/12/2019 08:18 AM 56.12 53.60 51.80 81.14 51.62 84.0 Not Reported 0.22 NE 0.00 NE 0.00 N No 0.000 No Precipitation 06/26/2019 04:37 PM 06/26/2019 04:55 PM 0.000 0.000 0.000 0.000 0.000 Not Reported Not Reported
07/12/2019 08:23 AM 56.66 53.96 51.98 81.14 51.62 84.0 Not Reported 0.00 N 0.00 N 0.45 NE No 0.000 No Precipitation 06/26/2019 04:37 PM 06/26/2019 04:55 PM 0.000 0.000 0.000 0.000 0.000 Not Reported Not Reported
07/12/2019 08:28 AM 57.38 54.68 52.52 81.14 51.62 83.0 Not Reported 0.22 NE 0.00 E 0.45 NE No 0.000 No Precipitation 06/26/2019 04:37 PM 06/26/2019 04:55 PM 0.000 0.000 0.000 0.000 0.000 Not Reported Not Reported
07/12/2019 08:33 AM 58.46 55.22 53.06 81.14 51.62 81.0 Not Reported 0.00 N 0.00 E 0.67 N No 0.000 No Precipitation 06/26/2019 04:37 PM 06/26/2019 04:55 PM 0.000 0.000 0.000 0.000 0.000 Not Reported Not Reported
07/12/2019 08:38 AM 59.72 55.94 53.42 81.14 51.62 79.0 Not Reported 0.22 NE 0.00 NE 0.67 N No 0.000 No Precipitation 06/26/2019 04:37 PM 06/26/2019 04:55 PM 0.000 0.000 0.000 0.000 0.000 Not Reported Not Reported
07/12/2019 08:43 AM 61.16 56.66 53.60 81.14 51.62 75.0 Not Reported 0.00 NE 0.22 N 0.45 NE No 0.000 No Precipitation 06/26/2019 04:37 PM 06/26/2019 04:55 PM 0.000 0.000 0.000 0.000 0.000 Not Reported Not Reported
07/12/2019 08:48 AM 62.42 57.20 53.78 81.14 51.62 73.0 Not Reported 0.00 E 0.00 E 0.45 NE No 0.000 No Precipitation 06/26/2019 04:37 PM 06/26/2019 04:55 PM 0.000 0.000 0.000 0.000 0.000 Not Reported Not Reported
07/12/2019 08:53 AM 64.40 57.02 51.62 81.14 51.62 63.0 Not Reported 0.00 NE 0.00 E 0.45 N No 0.000 No Precipitation 06/26/2019 04:37 PM 06/26/2019 04:55 PM 0.000 0.000 0.000 0.000 0.000 Not Reported Not Reported
07/12/2019 08:58 AM 66.92 57.92 51.80 81.14 51.62 58.0 Not Reported 0.00 W 0.00 E 0.45 N No 0.000 No Precipitation 06/26/2019 04:37 PM 06/26/2019 04:55 PM 0.000 0.000 0.000 0.000 0.000 Not Reported Not Reported
07/12/2019 09:03 AM 67.64 57.74 50.54 81.14 51.62 54.0 Not Reported 0.89 NE 0.45 E 1.34 NE No 0.000 No Precipitation 06/26/2019 04:37 PM 06/26/2019 04:55 PM 0.000 0.000 0.000 0.000 0.000 Not Reported Not Reported
07/12/2019 09:08 AM 68.00 57.92 50.72 81.14 51.62 53.0 Not Reported 0.22 E 0.22 NE 1.34 NE No 0.000 No Precipitation 06/26/2019 04:37 PM 06/26/2019 04:55 PM 0.000 0.000 0.000 0.000 0.000 Not Reported Not Reported
07/12/2019 09:13 AM 69.44 58.10 49.82 81.14 51.62 49.0 Not Reported 0.45 NE 0.00 NW 2.46 E No 0.000 No Precipitation 06/26/2019 04:37 PM 06/26/2019 04:55 PM 0.000 0.000 0.000 0.000 0.000 Not Reported Not Reported
07/12/2019 09:18 AM 71.06 58.28 49.10 81.14 51.62 45.0 Not Reported 0.45 NE 0.00 N 2.46 E No 0.000 No Precipitation 06/26/2019 04:37 PM 06/26/2019 04:55 PM 0.000 0.000 0.000 0.000 0.000 Not Reported Not Reported
07/12/2019 09:23 AM 70.88 58.28 48.92 81.14 51.62 45.0 Not Reported 0.67 E 1.12 NE 2.46 NE No 0.000 No Precipitation 06/26/2019 04:37 PM 06/26/2019 04:55 PM 0.000 0.000 0.000 0.000 0.000 Not Reported Not Reported
07/12/2019 09:28 AM 70.88 58.64 49.82 81.14 51.62 47.0 Not Reported 0.89 NE 0.67 E 2.46 NE No 0.000 No Precipitation 06/26/2019 04:37 PM 06/26/2019 04:55 PM 0.000 0.000 0.000 0.000 0.000 Not Reported Not Reported
07/12/2019 09:33 AM 70.88 58.46 49.46 81.14 51.62 46.0 Not Reported 0.67 NE 0.00 E 1.79 S No 0.000 No Precipitation 06/26/2019 04:37 PM 06/26/2019 04:55 PM 0.000 0.000 0.000 0.000 0.000 Not Reported Not Reported
07/12/2019 09:38 AM 71.24 59.00 50.54 81.14 51.62 47.0 Not Reported 0.45 E 0.67 NE 1.79 S No 0.000 No Precipitation 06/26/2019 04:37 PM 06/26/2019 04:55 PM 0.000 0.000 0.000 0.000 0.000 Not Reported Not Reported
07/12/2019 09:43 AM 71.24 58.10 48.56 81.14 51.62 44.0 Not Reported 1.34 E 0.45 E 2.24 SE No 0.000 No Precipitation 06/26/2019 04:37 PM 06/26/2019 04:55 PM 0.000 0.000 0.000 0.000 0.000 Not Reported Not Reported
07/12/2019 09:48 AM 71.60 58.64 49.28 81.14 51.62 45.0 Not Reported 0.45 E 1.79 E 2.24 SE No 0.000 No Precipitation 06/26/2019 04:37 PM 06/26/2019 04:55 PM 0.000 0.000 0.000 0.000 0.000 Not Reported Not Reported
07/12/2019 09:53 AM 71.06 58.28 49.10 81.14 51.62 45.0 Not Reported 0.22 E 1.12 E 2.01 SE No 0.000 No Precipitation 06/26/2019 04:37 PM 06/26/2019 04:55 PM 0.000 0.000 0.000 0.000 0.000 Not Reported Not Reported
07/12/2019 09:58 AM 71.42 58.64 49.64 81.14 51.62 45.0 Not Reported 1.12 E 0.22 NE 2.01 SE No 0.000 No Precipitation 06/26/2019 04:37 PM 06/26/2019 04:55 PM 0.000 0.000 0.000 0.000 0.000 Not Reported Not Reported
07/12/2019 10:03 AM 72.32 59.54 50.54 81.14 51.62 46.0 Not Reported 2.24 E 0.00 S 2.01 E No 0.000 No Precipitation 06/26/2019 04:37 PM 06/26/2019 04:55 PM 0.000 0.000 0.000 0.000 0.000 Not Reported Not Reported
07/12/2019 10:08 AM 71.24 59.36 51.08 81.14 51.62 49.0 Not Reported 0.67 E 0.89 NE 2.01 E No 0.000 No Precipitation 06/26/2019 04:37 PM 06/26/2019 04:55 PM 0.000 0.000 0.000 0.000 0.000 Not Reported Not Reported
07/12/2019 10:13 AM 71.96 59.54 51.08 81.14 51.62 47.0 Not Reported 0.67 E 1.12 SE 4.25 NE No 0.000 No Precipitation 06/26/2019 04:37 PM 06/26/2019 04:55 PM 0.000 0.000 0.000 0.000 0.000 Not Reported Not Reported
07/12/2019 10:18 AM 72.32 59.54 50.72 81.14 51.62 46.0 Not Reported 1.12 E 0.89 SE 4.25 NE No 0.000 No Precipitation 06/26/2019 04:37 PM 06/26/2019 04:55 PM 0.000 0.000 0.000 0.000 0.000 Not Reported Not Reported
07/12/2019 10:23 AM 72.50 59.00 49.46 81.14 51.62 44.0 Not Reported 0.22 SE 0.00 W 2.68 E No 0.000 No Precipitation 06/26/2019 04:37 PM 06/26/2019 04:55 PM 0.000 0.000 0.000 0.000 0.000 Not Reported Not Reported
07/12/2019 10:28 AM 72.14 59.18 50.18 81.14 51.62 46.0 Not Reported 0.67 E 0.67 E 2.68 E No 0.000 No Precipitation 06/26/2019 04:37 PM 06/26/2019 04:55 PM 0.000 0.000 0.000 0.000 0.000 Not Reported Not Reported
07/12/2019 10:33 AM 71.42 58.82 50.00 81.14 51.62 46.0 Not Reported 0.89 E 0.89 NW 2.46 NE No 0.000 No Precipitation 06/26/2019 04:37 PM 06/26/2019 04:55 PM 0.000 0.000 0.000 0.000 0.000 Not Reported Not Reported
07/12/2019 10:38 AM 71.42 59.18 50.72 81.14 51.62 48.0 Not Reported 1.57 NE 0.89 N 2.46 NE No 0.000 No Precipitation 06/26/2019 04:37 PM 06/26/2019 04:55 PM 0.000 0.000 0.000 0.000 0.000 Not Reported Not Reported
07/12/2019 10:43 AM 71.78 59.36 50.72 81.14 51.62 47.0 Not Reported 2.01 NE 0.00 E 4.25 NE No 0.000 No Precipitation 06/26/2019 04:37 PM 06/26/2019 04:55 PM 0.000 0.000 0.000 0.000 0.000 Not Reported Not Reported
07/12/2019 10:48 AM 71.96 59.18 50.18 81.14 51.62 46.0 Not Reported 1.34 NE 1.57 NE 4.25 NE No 0.000 No Precipitation 06/26/2019 04:37 PM 06/26/2019 04:55 PM 0.000 0.000 0.000 0.000 0.000 Not Reported Not Reported
07/12/2019 10:53 AM 71.96 58.82 49.46 81.14 51.62 44.0 Not Reported 1.12 NE 0.67 NE 3.36 N No 0.000 No Precipitation 06/26/2019 04:37 PM 06/26/2019 04:55 PM 0.000 0.000 0.000 0.000 0.000 Not Reported Not Reported
07/12/2019 10:58 AM 71.96 59.54 50.90 81.14 51.62 47.0 Not Reported 1.34 SE 0.67 S 3.36 N No 0.000 No Precipitation 06/26/2019 04:37 PM 06/26/2019 04:55 PM 0.000 0.000 0.000 0.000 0.000 Not Reported Not Reported
07/12/2019 11:03 AM 72.50 59.54 50.36 81.14 51.62 45.0 Not Reported 1.12 NE 0.22 NE 2.24 SE No 0.000 No Precipitation 06/26/2019 04:37 PM 06/26/2019 04:55 PM 0.000 0.000 0.000 0.000 0.000 Not Reported Not Reported
07/12/2019 11:08 AM 72.68 58.82 48.74 81.14 51.62 42.0 Not Reported 3.58 E 3.58 E 2.24 SE No 0.000 No Precipitation 06/26/2019 04:37 PM 06/26/2019 04:55 PM 0.000 0.000 0.000 0.000 0.000 Not Reported Not Reported
07/12/2019 11:13 AM 72.32 58.82 48.92 81.14 51.62 43.0 Not Reported 0.00 N 0.67 SE 4.25 SE No 0.000 No Precipitation 06/26/2019 04:37 PM 06/26/2019 04:55 PM 0.000 0.000 0.000 0.000 0.000 Not Reported Not Reported
07/12/2019 11:18 AM 72.68 58.46 47.84 81.14 51.62 41.0 Not Reported 1.79 NE 1.79 NE 4.25 SE No 0.000 No Precipitation 06/26/2019 04:37 PM 06/26/2019 04:55 PM 0.000 0.000 0.000 0.000 0.000 Not Reported Not Reported
07/12/2019 11:23 AM 72.86 58.28 47.48 81.14 51.62 40.0 Not Reported 2.24 E 4.92 S 2.24 E No 0.000 No Precipitation 06/26/2019 04:37 PM 06/26/2019 04:55 PM 0.000 0.000 0.000 0.000 0.000 Not Reported Not Reported
07/12/2019 11:28 AM 72.50 58.28 47.84 81.14 51.62 41.0 Not Reported 1.79 S 2.24 SW 2.24 E No 0.000 No Precipitation 06/26/2019 04:37 PM 06/26/2019 04:55 PM 0.000 0.000 0.000 0.000 0.000 Not Reported Not Reported
07/12/2019 11:33 AM 73.76 59.00 48.38 81.14 51.62 40.0 Not Reported 1.57 E 0.00 W 5.37 SE No 0.000 No Precipitation 06/26/2019 04:37 PM 06/26/2019 04:55 PM 0.000 0.000 0.000 0.000 0.000 Not Reported Not Reported
07/12/2019 11:38 AM 74.30 59.72 49.28 81.14 51.62 41.0 Not Reported 1.57 E 0.67 E 5.37 SE No 0.000 No Precipitation 06/26/2019 04:37 PM 06/26/2019 04:55 PM 0.000 0.000 0.000 0.000 0.000 Not Reported Not Reported
07/12/2019 11:43 AM 74.12 58.64 46.94 81.14 51.62 37.0 Not Reported 2.01 E 0.89 NE 3.36 E No 0.000 No Precipitation 06/26/2019 04:37 PM 06/26/2019 04:55 PM 0.000 0.000 0.000 0.000 0.000 Not Reported Not Reported
07/12/2019 11:48 AM 76.10 59.72 48.02 81.14 51.62 36.0 Not Reported 1.34 N 2.91 N 3.36 E No 0.000 No Precipitation 06/26/2019 04:37 PM 06/26/2019 04:55 PM 0.000 0.000 0.000 0.000 0.000 Not Reported Not Reported
07/12/2019 11:53 AM 74.30 58.64 46.76 81.14 51.62 37.0 Not Reported 2.91 SE 2.01 NE 4.47 SE No 0.000 No Precipitation 06/26/2019 04:37 PM 06/26/2019 04:55 PM 0.000 0.000 0.000 0.000 0.000 Not Reported Not Reported
07/12/2019 11:58 AM 74.12 59.18 48.20 81.14 51.62 39.0 Not Reported 2.01 E 1.12 NE 4.47 SE No 0.000 No Precipitation 06/26/2019 04:37 PM 06/26/2019 04:55 PM 0.000 0.000 0.000 0.000 0.000 Not Reported Not Reported
07/12/2019 12:03 PM 75.02 59.54 48.56 81.14 51.62 39.0 Not Reported 1.57 SE 0.67 N 4.70 S No 0.000 No Precipitation 06/26/2019 04:37 PM 06/26/2019 04:55 PM 0.000 0.000 0.000 0.000 0.000 Not Reported Not Reported
07/12/2019 12:08 PM 73.94 59.18 48.56 81.14 51.62 40.0 Not Reported 1.79 S 0.00 NW 4.70 S No 0.000 No Precipitation 06/26/2019 04:37 PM 06/26/2019 04:55 PM 0.000 0.000 0.000 0.000 0.000 Not Reported Not Reported
07/12/2019 12:13 PM 74.84 59.18 47.48 81.14 51.62 37.0 Not Reported 2.01 NE 1.34 NE 6.49 S No 0.000 No Precipitation 06/26/2019 04:37 PM 06/26/2019 04:55 PM 0.000 0.000 0.000 0.000 0.000 Not Reported Not Reported
07/12/2019 12:18 PM 76.82 61.34 50.90 81.14 51.62 40.0 Not Reported 0.67 S 0.45 SW 6.49 S No 0.000 No Precipitation 06/26/2019 04:37 PM 06/26/2019 04:55 PM 0.000 0.000 0.000 0.000 0.000 Not Reported Not Reported
07/12/2019 12:23 PM 75.56 60.26 49.64 81.14 51.62 40.0 Not Reported 4.25 SE 1.12 E 3.36 SE No 0.000 No Precipitation 06/26/2019 04:37 PM 06/26/2019 04:55 PM 0.000 0.000 0.000 0.000 0.000 Not Reported Not Reported
07/12/2019 12:28 PM 76.28 60.26 48.74 81.14 51.62 37.0 Not Reported 1.79 SE 0.89 S 3.36 SE No 0.000 No Precipitation 06/26/2019 04:37 PM 06/26/2019 04:55 PM 0.000 0.000 0.000 0.000 0.000 Not Reported Not Reported
07/12/2019 12:33 PM 76.10 60.26 49.28 81.14 51.62 38.0 Not Reported 1.79 NE 2.24 E 5.14 SE No 0.000 No Precipitation 06/26/2019 04:37 PM 06/26/2019 04:55 PM 0.000 0.000 0.000 0.000 0.000 Not Reported Not Reported
07/12/2019 12:38 PM 76.46 60.80 50.00 81.14 51.62 39.0 Not Reported 1.57 SW 0.89 N 5.14 SE No 0.000 No Precipitation 06/26/2019 04:37 PM 06/26/2019 04:55 PM 0.000 0.000 0.000 0.000 0.000 Not Reported Not Reported
07/12/2019 12:43 PM 76.10 60.62 49.64 81.14 51.62 39.0 Not Reported 0.89 NE 0.00 W 4.03 E No 0.000 No Precipitation 06/26/2019 04:37 PM 06/26/2019 04:55 PM 0.000 0.000 0.000 0.000 0.000 Not Reported Not Reported
07/12/2019 12:48 PM 77.72 60.80 49.10 81.14 51.62 36.0 Not Reported 0.45 NE 0.22 NE 4.03 E No 0.000 No Precipitation 06/26/2019 04:37 PM 06/26/2019 04:55 PM 0.000 0.000 0.000 0.000 0.000 Not Reported Not Reported
07/12/2019 12:53 PM 76.46 60.62 49.82 81.14 51.62 39.0 Not Reported 1.79 SW 3.36 NW 3.36 E No 0.000 No Precipitation 06/26/2019 04:37 PM 06/26/2019 04:55 PM 0.000 0.000 0.000 0.000 0.000 Not Reported Not Reported
07/12/2019 12:58 PM 77.18 61.34 50.72 81.14 51.62 39.0 Not Reported 4.70 W 4.25 W 3.36 E No 0.000 No Precipitation 06/26/2019 04:37 PM 06/26/2019 04:55 PM 0.000 0.000 0.000 0.000 0.000 Not Reported Not Reported
07/12/2019 01:03 PM 76.10 60.80 50.18 81.14 51.62 40.0 Not Reported 2.01 W 3.13 SE 6.26 SW No 0.000 No Precipitation 06/26/2019 04:37 PM 06/26/2019 04:55 PM 0.000 0.000 0.000 0.000 0.000 Not Reported Not Reported
07/12/2019 01:08 PM 76.82 61.34 51.08 81.14 51.62 40.0 Not Reported 2.01 SW 0.45 E 6.26 SW No 0.000 No Precipitation 06/26/2019 04:37 PM 06/26/2019 04:55 PM 0.000 0.000 0.000 0.000 0.000 Not Reported Not Reported
07/12/2019 01:13 PM 77.18 61.52 51.08 81.14 51.62 40.0 Not Reported 0.67 N 2.68 SE 3.80 S No 0.000 No Precipitation 06/26/2019 04:37 PM 06/26/2019 04:55 PM 0.000 0.000 0.000 0.000 0.000 Not Reported Not Reported
07/12/2019 01:18 PM 76.82 61.16 50.72 81.14 51.62 40.0 Not Reported 1.79 NW 0.89 N 3.80 S No 0.000 No Precipitation 06/26/2019 04:37 PM 06/26/2019 04:55 PM 0.000 0.000 0.000 0.000 0.000 Not Reported Not Reported
07/12/2019 01:23 PM 77.90 61.34 49.82 81.14 51.62 37.0 Not Reported 2.01 W 2.46 SW 3.80 SE No 0.000 No Precipitation 06/26/2019 04:37 PM 06/26/2019 04:55 PM 0.000 0.000 0.000 0.000 0.000 Not Reported Not Reported
07/12/2019 01:28 PM 77.36 61.34 50.18 81.14 51.62 38.0 Not Reported 1.34 SE 1.12 E 3.80 SE No 0.000 No Precipitation 06/26/2019 04:37 PM 06/26/2019 04:55 PM 0.000 0.000 0.000 0.000 0.000 Not Reported Not Reported
07/12/2019 01:33 PM 77.18 61.16 50.36 81.14 51.62 38.0 Not Reported 3.58 W 2.24 SW 4.47 W No 0.000 No Precipitation 06/26/2019 04:37 PM 06/26/2019 04:55 PM 0.000 0.000 0.000 0.000 0.000 Not Reported Not Reported
07/12/2019 01:38 PM 77.00 61.52 51.08 81.14 51.62 40.0 Not Reported 5.37 W 4.25 W 4.47 W No 0.000 No Precipitation 06/26/2019 04:37 PM 06/26/2019 04:55 PM 0.000 0.000 0.000 0.000 0.000 Not Reported Not Reported
07/12/2019 01:43 PM 77.36 61.70 51.26 81.14 51.62 40.0 Not Reported 3.36 NW 4.47 NW 6.04 NW No 0.000 No Precipitation 06/26/2019 04:37 PM 06/26/2019 04:55 PM 0.000 0.000 0.000 0.000 0.000 Not Reported Not Reported
07/12/2019 01:48 PM 78.80 61.88 50.72 81.14 51.62 37.0 Not Reported 4.25 SW 3.13 SW 6.04 NW No 0.000 No Precipitation 06/26/2019 04:37 PM 06/26/2019 04:55 PM 0.000 0.000 0.000 0.000 0.000 Not Reported Not Reported
07/12/2019 01:53 PM 78.44 61.16 49.28 81.14 51.62 36.0 Not Reported 2.91 W 5.59 E 7.16 W No 0.000 No Precipitation 06/26/2019 04:37 PM 06/26/2019 04:55 PM 0.000 0.000 0.000 0.000 0.000 Not Reported Not Reported
07/12/2019 01:58 PM 78.44 61.16 49.10 81.14 51.62 35.0 Not Reported 4.92 W 4.03 W 7.16 W No 0.000 No Precipitation 06/26/2019 04:37 PM 06/26/2019 04:55 PM 0.000 0.000 0.000 0.000 0.000 Not Reported Not Reported
07/12/2019 02:03 PM 78.08 60.08 46.76 81.14 51.62 33.0 Not Reported 5.37 W 3.80 NW 6.49 W No 0.000 No Precipitation 06/26/2019 04:37 PM 06/26/2019 04:55 PM 0.000 0.000 0.000 0.000 0.000 Not Reported Not Reported
07/12/2019 02:08 PM 79.88 61.16 47.84 81.14 51.62 32.0 Not Reported 1.34 NW 4.03 W 6.49 W No 0.000 No Precipitation 06/26/2019 04:37 PM 06/26/2019 04:55 PM 0.000 0.000 0.000 0.000 0.000 Not Reported Not Reported
07/12/2019 02:13 PM 79.52 60.80 47.12 81.14 51.62 32.0 Not Reported 4.03 W 4.25 SW 7.83 SW No 0.000 No Precipitation 06/26/2019 04:37 PM 06/26/2019 04:55 PM 0.000 0.000 0.000 0.000 0.000 Not Reported Not Reported
07/12/2019 02:18 PM 79.88 61.70 49.10 81.14 51.62 34.0 Not Reported 2.01 S 1.57 E 7.83 SW No 0.000 No Precipitation 06/26/2019 04:37 PM 06/26/2019 04:55 PM 0.000 0.000 0.000 0.000 0.000 Not Reported Not Reported
07/12/2019 02:23 PM 79.88 61.34 48.20 81.14 51.62 32.0 Not Reported 2.68 SE 0.89 SW 6.49 SW No 0.000 No Precipitation 06/26/2019 04:37 PM 06/26/2019 04:55 PM 0.000 0.000 0.000 0.000 0.000 Not Reported Not Reported
07/12/2019 02:28 PM 80.06 61.34 48.38 81.14 51.62 33.0 Not Reported 4.25 SE 3.58 E 6.49 SW No 0.000 No Precipitation 06/26/2019 04:37 PM 06/26/2019 04:55 PM 0.000 0.000 0.000 0.000 0.000 Not Reported Not Reported
07/12/2019 02:33 PM 81.50 62.06 48.92 81.50 51.62 31.0 Not Reported 0.89 NW 2.46 SW 5.14 SE No 0.000 No Precipitation 06/26/2019 04:37 PM 06/26/2019 04:55 PM 0.000 0.000 0.000 0.000 0.000 Not Reported Not Reported
07/12/2019 02:38 PM 80.60 61.70 48.74 81.50 51.62 32.0 Not Reported 5.59 W 4.03 W 5.14 SE No 0.000 No Precipitation 06/26/2019 04:37 PM 06/26/2019 04:55 PM 0.000 0.000 0.000 0.000 0.000 Not Reported Not Reported
07/12/2019 02:43 PM 79.16 61.34 48.38 81.50 51.62 33.0 Not Reported 4.25 SE 1.79 S 8.05 S No 0.000 No Precipitation 06/26/2019 04:37 PM 06/26/2019 04:55 PM 0.000 0.000 0.000 0.000 0.000 Not Reported Not Reported
07/12/2019 02:48 PM 79.34 61.16 48.20 81.50 51.62 33.0 Not Reported 3.58 E 1.34 NE 8.05 S No 0.000 No Precipitation 06/26/2019 04:37 PM 06/26/2019 04:55 PM 0.000 0.000 0.000 0.000 0.000 Not Reported Not Reported
07/12/2019 02:53 PM 79.70 61.52 48.74 81.50 51.62 33.0 Not Reported 2.24 SW 0.22 E 6.04 SE No 0.000 No Precipitation 06/26/2019 04:37 PM 06/26/2019 04:55 PM 0.000 0.000 0.000 0.000 0.000 Not Reported Not Reported
07/12/2019 02:58 PM 80.60 62.06 49.28 81.50 51.62 33.0 Not Reported 2.01 SW 2.01 SW 6.04 SE No 0.000 No Precipitation 06/26/2019 04:37 PM 06/26/2019 04:55 PM 0.000 0.000 0.000 0.000 0.000 Not Reported Not Reported
07/12/2019 03:03 PM 80.06 61.70 49.10 81.50 51.62 33.0 Not Reported 4.70 W 6.26 W 6.71 W No 0.000 No Precipitation 06/26/2019 04:37 PM 06/26/2019 04:55 PM 0.000 0.000 0.000 0.000 0.000 Not Reported Not Reported
07/12/2019 03:08 PM 79.16 61.52 49.28 81.50 51.62 35.0 Not Reported 3.58 NW 0.22 N 6.71 W No 0.000 No Precipitation 06/26/2019 04:37 PM 06/26/2019 04:55 PM 0.000 0.000 0.000 0.000 0.000 Not Reported Not Reported
07/12/2019 03:13 PM 81.68 62.78 50.36 81.68 51.62 33.0 Not Reported 3.58 W 1.57 SE 8.05 W No 0.000 No Precipitation 06/26/2019 04:37 PM 06/26/2019 04:55 PM 0.000 0.000 0.000 0.000 0.000 Not Reported Not Reported
07/12/2019 03:18 PM 82.58 62.60 48.74 82.58 51.62 30.0 Not Reported 1.12 E 1.34 NE 8.05 W No 0.000 No Precipitation 06/26/2019 04:37 PM 06/26/2019 04:55 PM 0.000 0.000 0.000 0.000 0.000 Not Reported Not Reported
07/12/2019 03:23 PM 82.40 62.60 49.10 83.12 51.62 31.0 Not Reported 3.36 SW 4.03 NW 5.82 W No 0.000 No Precipitation 06/26/2019 04:37 PM 06/26/2019 04:55 PM 0.000 0.000 0.000 0.000 0.000 Not Reported Not Reported
07/12/2019 03:28 PM 81.50 62.06 48.74 83.12 51.62 32.0 Not Reported 4.25 W 4.47 SW 5.82 W No 0.000 No Precipitation 06/26/2019 04:37 PM 06/26/2019 04:55 PM 0.000 0.000 0.000 0.000 0.000 Not Reported Not Reported
07/12/2019 03:33 PM 82.22 62.42 48.92 83.12 51.62 31.0 Not Reported 3.80 W 6.04 SW 5.37 NW No 0.000 No Precipitation 06/26/2019 04:37 PM 06/26/2019 04:55 PM 0.000 0.000 0.000 0.000 0.000 Not Reported Not Reported
07/12/2019 03:38 PM 81.68 62.42 49.46 83.12 51.62 32.0 Not Reported 1.57 NW 2.91 W 5.37 NW No 0.000 No Precipitation 06/26/2019 04:37 PM 06/26/2019 04:55 PM 0.000 0.000 0.000 0.000 0.000 Not Reported Not Reported
07/12/2019 03:43 PM 79.70 61.34 48.56 83.12 51.62 33.0 Not Reported 5.82 W 0.67 S 8.28 W No 0.000 No Precipitation 06/26/2019 04:37 PM 06/26/2019 04:55 PM 0.000 0.000 0.000 0.000 0.000 Not Reported Not Reported
07/12/2019 03:48 PM 81.32 62.42 49.46 83.12 51.62 33.0 Not Reported 0.45 SW 0.22 NW 8.28 W No 0.000 No Precipitation 06/26/2019 04:37 PM 06/26/2019 04:55 PM 0.000 0.000 0.000 0.000 0.000 Not Reported Not Reported
07/12/2019 03:53 PM 80.96 62.06 49.10 83.12 51.62 32.0 Not Reported 4.03 W 3.13 W 7.16 S No 0.000 No Precipitation 06/26/2019 04:37 PM 06/26/2019 04:55 PM 0.000 0.000 0.000 0.000 0.000 Not Reported Not Reported
07/12/2019 03:58 PM 80.60 61.88 48.74 83.12 51.62 32.0 Not Reported 2.91 S 0.45 NE 7.16 S No 0.000 No Precipitation 06/26/2019 04:37 PM 06/26/2019 04:55 PM 0.000 0.000 0.000 0.000 0.000 Not Reported Not Reported
07/12/2019 04:03 PM 82.40 62.42 48.92 83.12 51.62 31.0 Not Reported 1.79 NW 1.79 SW 5.37 W No 0.000 No Precipitation 06/26/2019 04:37 PM 06/26/2019 04:55 PM 0.000 0.000 0.000 0.000 0.000 Not Reported Not Reported
07/12/2019 04:08 PM 81.68 61.88 48.20 83.12 51.62 31.0 Not Reported 4.70 NW 3.58 NW 5.37 W No 0.000 No Precipitation 06/26/2019 04:37 PM 06/26/2019 04:55 PM 0.000 0.000 0.000 0.000 0.000 Not Reported Not Reported
07/12/2019 04:13 PM 82.04 62.42 49.10 83.12 51.62 31.0 Not Reported 3.36 S 0.67 NW 6.71 S No 0.000 No Precipitation 06/26/2019 04:37 PM 06/26/2019 04:55 PM 0.000 0.000 0.000 0.000 0.000 Not Reported Not Reported
07/12/2019 04:18 PM 83.12 62.78 48.92 84.20 51.62 30.0 Not Reported 6.26 W 5.37 W 6.71 S No 0.000 No Precipitation 06/26/2019 04:37 PM 06/26/2019 04:55 PM 0.000 0.000 0.000 0.000 0.000 Not Reported Not Reported
07/12/2019 04:23 PM 81.50 61.88 48.02 84.20 51.62 31.0 Not Reported 5.59 W 4.92 NW 7.38 NW No 0.000 No Precipitation 06/26/2019 04:37 PM 06/26/2019 04:55 PM 0.000 0.000 0.000 0.000 0.000 Not Reported Not Reported
07/12/2019 04:28 PM 81.68 62.06 48.56 84.20 51.62 31.0 Not Reported 2.46 W 2.01 W 7.38 NW No 0.000 No Precipitation 06/26/2019 04:37 PM 06/26/2019 04:55 PM 0.000 0.000 0.000 0.000 0.000 Not Reported Not Reported
07/12/2019 04:33 PM 80.78 61.70 48.02 84.20 51.62 32.0 Not Reported 2.24 W 3.80 W 6.71 NW No 0.000 No Precipitation 06/26/2019 04:37 PM 06/26/2019 04:55 PM 0.000 0.000 0.000 0.000 0.000 Not Reported Not Reported
07/12/2019 04:38 PM 82.58 62.42 48.56 84.20 51.62 30.0 Not Reported 2.46 S 5.37 S 6.71 NW No 0.000 No Precipitation 06/26/2019 04:37 PM 06/26/2019 04:55 PM 0.000 0.000 0.000 0.000 0.000 Not Reported Not Reported
07/12/2019 04:43 PM 83.48 63.14 49.64 84.20 51.62 30.0 Not Reported 2.91 W 3.36 NW 5.37 S No 0.000 No Precipitation 06/26/2019 04:37 PM 06/26/2019 04:55 PM 0.000 0.000 0.000 0.000 0.000 Not Reported Not Reported
07/12/2019 04:48 PM 82.22 62.24 48.56 84.20 51.62 30.0 Not Reported 3.36 SW 1.79 S 5.37 S No 0.000 No Precipitation 06/26/2019 04:37 PM 06/26/2019 04:55 PM 0.000 0.000 0.000 0.000 0.000 Not Reported Not Reported
07/12/2019 04:53 PM 82.58 62.24 48.02 84.20 51.62 30.0 Not Reported 5.14 W 4.92 SW 7.38 NW No 0.000 No Precipitation 06/26/2019 04:37 PM 06/26/2019 04:55 PM 0.000 0.000 0.000 0.000 0.000 Not Reported Not Reported
07/12/2019 04:58 PM 82.04 62.24 48.74 84.20 51.62 31.0 Not Reported 1.79 N 0.22 NE 7.38 NW No 0.000 No Precipitation 06/26/2019 04:37 PM 06/26/2019 04:55 PM 0.000 0.000 0.000 0.000 0.000 Not Reported Not Reported
07/12/2019 05:03 PM 84.02 63.14 48.92 84.20 51.62 29.0 Not Reported 0.89 N 1.34 W 7.38 W No 0.000 No Precipitation 06/26/2019 04:37 PM 06/26/2019 04:55 PM 0.000 0.000 0.000 0.000 0.000 Not Reported Not Reported
07/12/2019 05:08 PM 82.58 62.60 49.10 84.20 51.62 31.0 Not Reported 2.68 NW 1.79 N 7.38 W No 0.000 No Precipitation 06/26/2019 04:37 PM 06/26/2019 04:55 PM 0.000 0.000 0.000 0.000 0.000 Not Reported Not Reported
07/12/2019 05:13 PM 82.94 62.78 49.28 84.20 51.62 30.0 Not Reported 5.37 SW 3.80 SW 6.71 W No 0.000 No Precipitation 06/26/2019 04:37 PM 06/26/2019 04:55 PM 0.000 0.000 0.000 0.000 0.000 Not Reported Not Reported
07/12/2019 05:18 PM 82.22 62.24 48.38 84.20 51.62 30.0 Not Reported 4.47 W 7.16 W 6.71 W No 0.000 No Precipitation 06/26/2019 04:37 PM 06/26/2019 04:55 PM 0.000 0.000 0.000 0.000 0.000 Not Reported Not Reported
07/12/2019 05:23 PM 82.76 62.96 49.82 84.20 51.62 31.0 Not Reported 2.91 NW 3.36 S 10.74 W No 0.000 No Precipitation 06/26/2019 04:37 PM 06/26/2019 04:55 PM 0.000 0.000 0.000 0.000 0.000 Not Reported Not Reported
07/12/2019 05:28 PM 82.04 62.42 49.10 84.20 51.62 31.0 Not Reported 2.24 E 2.46 NE 10.74 W No 0.000 No Precipitation 06/26/2019 04:37 PM 06/26/2019 04:55 PM 0.000 0.000 0.000 0.000 0.000 Not Reported Not Reported
07/12/2019 05:33 PM 82.58 62.60 49.10 84.20 51.62 31.0 Not Reported 4.25 SW 2.46 NE 6.93 SW No 0.000 No Precipitation 06/26/2019 04:37 PM 06/26/2019 04:55 PM 0.000 0.000 0.000 0.000 0.000 Not Reported Not Reported
07/12/2019 05:38 PM 82.40 62.96 50.00 84.20 51.62 32.0 Not Reported 2.68 SW 2.01 W 6.93 SW No 0.000 No Precipitation 06/26/2019 04:37 PM 06/26/2019 04:55 PM 0.000 0.000 0.000 0.000 0.000 Not Reported Not Reported
07/12/2019 05:43 PM 83.30 62.96 49.28 84.20 51.62 30.0 Not Reported 2.01 E 4.92 NE 5.82 W No 0.000 No Precipitation 06/26/2019 04:37 PM 06/26/2019 04:55 PM 0.000 0.000 0.000 0.000 0.000 Not Reported Not Reported
07/12/2019 05:48 PM 83.84 63.14 49.28 84.20 51.62 30.0 Not Reported 0.00 NE 0.45 NE 5.82 W No 0.000 No Precipitation 06/26/2019 04:37 PM 06/26/2019 04:55 PM 0.000 0.000 0.000 0.000 0.000 Not Reported Not Reported
07/12/2019 05:53 PM 84.02 63.14 49.28 84.20 51.62 29.0 Not Reported 2.01 W 3.36 S 4.92 NE No 0.000 No Precipitation 06/26/2019 04:37 PM 06/26/2019 04:55 PM 0.000 0.000 0.000 0.000 0.000 Not Reported Not Reported
07/12/2019 05:58 PM 84.02 62.96 48.74 84.20 51.62 29.0 Not Reported 0.45 SE 0.22 E 4.92 NE No 0.000 No Precipitation 06/26/2019 04:37 PM 06/26/2019 04:55 PM 0.000 0.000 0.000 0.000 0.000 Not Reported Not Reported
07/12/2019 06:03 PM 84.56 63.50 49.46 84.74 51.62 29.0 Not Reported 2.01 S 2.24 N 4.25 SW No 0.000 No Precipitation 06/26/2019 04:37 PM 06/26/2019 04:55 PM 0.000 0.000 0.000 0.000 0.000 Not Reported Not Reported
07/12/2019 06:08 PM 83.84 63.14 49.10 84.74 51.62 30.0 Not Reported 3.58 W 5.37 W 4.25 SW No 0.000 No Precipitation 06/26/2019 04:37 PM 06/26/2019 04:55 PM 0.000 0.000 0.000 0.000 0.000 Not Reported Not Reported
07/12/2019 06:13 PM 83.84 63.14 49.10 84.74 51.62 29.0 Not Reported 3.13 W 1.79 SW 7.61 NW No 0.000 No Precipitation 06/26/2019 04:37 PM 06/26/2019 04:55 PM 0.000 0.000 0.000 0.000 0.000 Not Reported Not Reported
07/12/2019 06:18 PM 83.84 62.96 48.74 84.74 51.62 29.0 Not Reported 4.03 W 4.47 S 7.61 NW No 0.000 No Precipitation 06/26/2019 04:37 PM 06/26/2019 04:55 PM 0.000 0.000 0.000 0.000 0.000 Not Reported Not Reported
07/12/2019 06:23 PM 83.12 62.78 49.10 84.74 51.62 30.0 Not Reported 3.80 W 2.91 NW 4.47 S No 0.000 No Precipitation 06/26/2019 04:37 PM 06/26/2019 04:55 PM 0.000 0.000 0.000 0.000 0.000 Not Reported Not Reported
07/12/2019 06:28 PM 83.30 62.24 47.84 84.74 51.62 29.0 Not Reported 5.37 SW 4.25 S 4.47 S No 0.000 No Precipitation 06/26/2019 04:37 PM 06/26/2019 04:55 PM 0.000 0.000 0.000 0.000 0.000 Not Reported Not Reported
07/12/2019 06:33 PM 83.12 62.60 48.38 84.74 51.62 29.0 Not Reported 3.58 SW 3.13 W 6.71 W No 0.000 No Precipitation 06/26/2019 04:37 PM 06/26/2019 04:55 PM 0.000 0.000 0.000 0.000 0.000 Not Reported Not Reported
07/12/2019 06:38 PM 83.66 62.78 48.74 84.74 51.62 29.0 Not Reported 4.70 W 3.80 W 6.71 W No 0.000 No Precipitation 06/26/2019 04:37 PM 06/26/2019 04:55 PM 0.000 0.000 0.000 0.000 0.000 Not Reported Not Reported
07/12/2019 06:43 PM 83.66 62.24 47.30 84.74 51.62 28.0 Not Reported 4.03 W 4.92 SW 8.28 W No 0.000 No Precipitation 06/26/2019 04:37 PM 06/26/2019 04:55 PM 0.000 0.000 0.000 0.000 0.000 Not Reported Not Reported
07/12/2019 06:48 PM 82.58 62.24 48.02 84.74 51.62 29.0 Not Reported 6.49 W 4.47 W 8.28 W No 0.000 No Precipitation 06/26/2019 04:37 PM 06/26/2019 04:55 PM 0.000 0.000 0.000 0.000 0.000 Not Reported Not Reported
07/12/2019 06:53 PM 83.30 62.60 48.20 84.74 51.62 29.0 Not Reported 4.47 W 4.47 SW 7.16 W No 0.000 No Precipitation 06/26/2019 04:37 PM 06/26/2019 04:55 PM 0.000 0.000 0.000 0.000 0.000 Not Reported Not Reported
07/12/2019 06:58 PM 82.94 62.24 47.84 84.74 51.62 29.0 Not Reported 5.37 W 4.70 W 7.16 W No 0.000 No Precipitation 06/26/2019 04:37 PM 06/26/2019 04:55 PM 0.000 0.000 0.000 0.000 0.000 Not Reported Not Reported
07/12/2019 07:03 PM 82.40 61.70 47.12 84.74 51.62 29.0 Not Reported 6.49 W 6.93 NW 8.05 W No 0.000 No Precipitation 06/26/2019 04:37 PM 06/26/2019 04:55 PM 0.000 0.000 0.000 0.000 0.000 Not Reported Not Reported
07/12/2019 07:08 PM 82.40 62.06 48.02 84.74 51.62 30.0 Not Reported 3.58 W 3.58 W 8.05 W No 0.000 No Precipitation 06/26/2019 04:37 PM 06/26/2019 04:55 PM 0.000 0.000 0.000 0.000 0.000 Not Reported Not Reported
07/12/2019 07:13 PM 82.76 62.24 48.02 84.74 51.62 30.0 Not Reported 4.47 W 4.92 SW 9.40 W No 0.000 No Precipitation 06/26/2019 04:37 PM 06/26/2019 04:55 PM 0.000 0.000 0.000 0.000 0.000 Not Reported Not Reported
07/12/2019 07:18 PM 83.30 62.60 48.38 84.74 51.62 29.0 Not Reported 3.13 W 3.58 SW 9.40 W No 0.000 No Precipitation 06/26/2019 04:37 PM 06/26/2019 04:55 PM 0.000 0.000 0.000 0.000 0.000 Not Reported Not Reported
07/12/2019 07:23 PM 82.58 62.24 48.02 84.74 51.62 29.0 Not Reported 5.14 W 8.50 W 6.93 SW No 0.000 No Precipitation 06/26/2019 04:37 PM 06/26/2019 04:55 PM 0.000 0.000 0.000 0.000 0.000 Not Reported Not Reported
07/12/2019 07:28 PM 82.40 62.42 48.56 84.74 51.62 30.0 Not Reported 3.80 SW 2.46 W 6.93 SW No 0.000 No Precipitation 06/26/2019 04:37 PM 06/26/2019 04:55 PM 0.000 0.000 0.000 0.000 0.000 Not Reported Not Reported
07/12/2019 07:33 PM 81.68 61.70 47.66 84.74 51.62 30.0 Not Reported 5.59 W 5.82 W 8.50 W No 0.000 No Precipitation 06/26/2019 04:37 PM 06/26/2019 04:55 PM 0.000 0.000 0.000 0.000 0.000 Not Reported Not Reported
07/12/2019 07:38 PM 82.04 62.06 48.20 84.74 51.62 30.0 Not Reported 4.47 SW 3.80 NW 8.50 W No 0.000 No Precipitation 06/26/2019 04:37 PM 06/26/2019 04:55 PM 0.000 0.000 0.000 0.000 0.000 Not Reported Not Reported
07/12/2019 07:43 PM 82.04 62.06 48.02 84.74 51.62 30.0 Not Reported 4.92 W 3.13 W 6.49 W No 0.000 No Precipitation 06/26/2019 04:37 PM 06/26/2019 04:55 PM 0.000 0.000 0.000 0.000 0.000 Not Reported Not Reported
07/12/2019 07:48 PM 82.04 62.24 48.74 84.74 51.62 31.0 Not Reported 4.03 W 5.82 W 6.49 W No 0.000 No Precipitation 06/26/2019 04:37 PM 06/26/2019 04:55 PM 0.000 0.000 0.000 0.000 0.000 Not Reported Not Reported
07/12/2019 07:53 PM 81.32 61.52 47.48 84.74 51.62 30.0 Not Reported 4.25 W 3.13 NW 6.49 W No 0.000 No Precipitation 06/26/2019 04:37 PM 06/26/2019 04:55 PM 0.000 0.000 0.000 0.000 0.000 Not Reported Not Reported
07/12/2019 07:58 PM 81.14 61.88 48.38 84.74 51.62 31.0 Not Reported 3.13 SW 2.68 SW 6.49 W No 0.000 No Precipitation 06/26/2019 04:37 PM 06/26/2019 04:55 PM 0.000 0.000 0.000 0.000 0.000 Not Reported Not Reported
07/12/2019 08:03 PM 81.32 61.70 47.84 84.74 51.62 30.0 Not Reported 3.36 W 4.03 NW 6.04 W No 0.000 No Precipitation 06/26/2019 04:37 PM 06/26/2019 04:55 PM 0.000 0.000 0.000 0.000 0.000 Not Reported Not Reported
07/12/2019 08:08 PM 80.60 61.70 48.56 84.74 51.62 32.0 Not Reported 4.03 W 3.13 NW 6.04 W No 0.000 No Precipitation 06/26/2019 04:37 PM 06/26/2019 04:55 PM 0.000 0.000 0.000 0.000 0.000 Not Reported Not Reported
07/12/2019 08:13 PM 80.60 61.34 47.66 84.74 51.62 31.0 Not Reported 3.80 W 2.24 W 5.59 W No 0.000 No Precipitation 06/26/2019 04:37 PM 06/26/2019 04:55 PM 0.000 0.000 0.000 0.000 0.000 Not Reported Not Reported
07/12/2019 08:18 PM 79.88 61.52 49.82 84.74 51.62 33.0 Not Reported 3.58 NW 3.58 W 5.59 W No 0.000 No Precipitation 06/26/2019 04:37 PM 06/26/2019 04:55 PM 0.000 0.000 0.000 0.000 0.000 Not Reported Not Reported
07/12/2019 08:23 PM 79.52 61.34 48.38 84.74 51.62 33.0 Not Reported 3.13 W 2.24 W 6.71 W No 0.000 No Precipitation 06/26/2019 04:37 PM 06/26/2019 04:55 PM 0.000 0.000 0.000 0.000 0.000 Not Reported Not Reported
07/12/2019 08:28 PM 78.44 60.80 48.56 84.74 51.62 35.0 Not Reported 2.46 W 1.57 W 6.71 W No 0.000 No Precipitation 06/26/2019 04:37 PM 06/26/2019 04:55 PM 0.000 0.000 0.000 0.000 0.000 Not Reported Not Reported
07/12/2019 08:33 PM 77.18 61.16 50.18 84.74 51.62 38.0 Not Reported 1.34 NW 1.34 N 4.47 S No 0.000 No Precipitation 06/26/2019 04:37 PM 06/26/2019 04:55 PM 0.000 0.000 0.000 0.000 0.000 Not Reported Not Reported
07/12/2019 08:38 PM 76.10 60.80 50.18 84.74 51.62 40.0 Not Reported 0.67 W 1.57 W 4.47 S No 0.000 No Precipitation 06/26/2019 04:37 PM 06/26/2019 04:55 PM 0.000 0.000 0.000 0.000 0.000 Not Reported Not Reported
07/12/2019 08:43 PM 75.56 60.98 50.90 84.74 51.62 42.0 Not Reported 4.47 W 3.80 NW 3.13 SW No 0.000 No Precipitation 06/26/2019 04:37 PM 06/26/2019 04:55 PM 0.000 0.000 0.000 0.000 0.000 Not Reported Not Reported
07/12/2019 08:48 PM 74.66 60.44 50.54 84.74 51.62 42.0 Not Reported 1.79 NW 1.34 N 3.13 SW No 0.000 No Precipitation 06/26/2019 04:37 PM 06/26/2019 04:55 PM 0.000 0.000 0.000 0.000 0.000 Not Reported Not Reported
07/12/2019 08:53 PM 74.48 61.34 52.52 84.74 51.62 46.0 Not Reported 1.57 W 1.79 W 5.14 SW No 0.000 No Precipitation 06/26/2019 04:37 PM 06/26/2019 04:55 PM 0.000 0.000 0.000 0.000 0.000 Not Reported Not Reported
07/12/2019 08:58 PM 73.76 61.34 53.06 84.74 51.62 48.0 Not Reported 0.22 NW 0.22 N 5.14 SW No 0.000 No Precipitation 06/26/2019 04:37 PM 06/26/2019 04:55 PM 0.000 0.000 0.000 0.000 0.000 Not Reported Not Reported
07/12/2019 09:03 PM 73.22 61.34 53.78 84.74 51.62 50.0 Not Reported 0.67 N 0.89 W 2.46 W No 0.000 No Precipitation 06/26/2019 04:37 PM 06/26/2019 04:55 PM 0.000 0.000 0.000 0.000 0.000 Not Reported Not Reported
07/12/2019 09:08 PM 72.14 61.34 54.14 84.74 51.62 53.0 Not Reported 1.34 NW 0.89 NW 2.46 W No 0.000 No Precipitation 06/26/2019 04:37 PM 06/26/2019 04:55 PM 0.000 0.000 0.000 0.000 0.000 Not Reported Not Reported
07/12/2019 09:13 PM 71.60 60.98 53.96 84.74 51.62 53.0 Not Reported 0.22 NW 0.00 SW 2.24 N No 0.000 No Precipitation 06/26/2019 04:37 PM 06/26/2019 04:55 PM 0.000 0.000 0.000 0.000 0.000 Not Reported Not Reported
07/12/2019 09:18 PM 71.42 60.98 54.32 84.74 51.62 54.0 Not Reported 0.00 N 0.00 W 2.24 N No 0.000 No Precipitation 06/26/2019 04:37 PM 06/26/2019 04:55 PM 0.000 0.000 0.000 0.000 0.000 Not Reported Not Reported
07/12/2019 09:23 PM 70.88 60.80 54.14 84.74 51.62 55.0 Not Reported 0.00 N 0.67 NW 1.12 NW No 0.000 No Precipitation 06/26/2019 04:37 PM 06/26/2019 04:55 PM 0.000 0.000 0.000 0.000 0.000 Not Reported Not Reported
07/12/2019 09:28 PM 70.52 60.62 54.32 84.74 51.62 56.0 Not Reported 0.22 NW 0.00 NW 1.12 NW No 0.000 No Precipitation 06/26/2019 04:37 PM 06/26/2019 04:55 PM 0.000 0.000 0.000 0.000 0.000 Not Reported Not Reported
07/12/2019 09:33 PM 69.80 60.26 54.14 84.74 51.62 57.0 Not Reported 0.22 W 0.00 W 1.12 SW No 0.000 No Precipitation 06/26/2019 04:37 PM 06/26/2019 04:55 PM 0.000 0.000 0.000 0.000 0.000 Not Reported Not Reported
07/12/2019 09:38 PM 69.44 60.26 54.14 84.74 51.62 58.0 Not Reported 0.00 SE 0.00 NE 1.12 SW No 0.000 No Precipitation 06/26/2019 04:37 PM 06/26/2019 04:55 PM 0.000 0.000 0.000 0.000 0.000 Not Reported Not Reported
07/12/2019 09:43 PM 69.08 59.90 53.96 84.74 51.62 58.0 Not Reported 0.00 N 0.22 NW 1.12 NW No 0.000 No Precipitation 06/26/2019 04:37 PM 06/26/2019 04:55 PM 0.000 0.000 0.000 0.000 0.000 Not Reported Not Reported
07/12/2019 09:48 PM 68.36 59.54 53.60 84.74 51.62 58.0 Not Reported 1.34 W 0.00 NW 1.12 NW No 0.000 No Precipitation 06/26/2019 04:37 PM 06/26/2019 04:55 PM 0.000 0.000 0.000 0.000 0.000 Not Reported Not Reported
07/12/2019 09:53 PM 68.36 59.54 53.78 84.74 51.62 59.0 Not Reported 0.00 SW 0.00 N 2.46 W No 0.000 No Precipitation 06/26/2019 04:37 PM 06/26/2019 04:55 PM 0.000 0.000 0.000 0.000 0.000 Not Reported Not Reported
07/12/2019 09:58 PM 68.54 59.18 52.88 84.74 51.62 57.0 Not Reported 1.12 W 1.34 SW 2.46 W No 0.000 No Precipitation 06/26/2019 04:37 PM 06/26/2019 04:55 PM 0.000 0.000 0.000 0.000 0.000 Not Reported Not Reported
07/12/2019 10:03 PM 68.36 59.18 53.24 84.74 51.62 58.0 Not Reported 0.00 N 0.00 SW 1.34 W No 0.000 No Precipitation 06/26/2019 04:37 PM 06/26/2019 04:55 PM 0.000 0.000 0.000 0.000 0.000 Not Reported Not Reported
07/12/2019 10:08 PM 68.00 59.00 52.88 84.74 51.62 58.0 Not Reported 0.00 NW 0.00 NW 1.34 W No 0.000 No Precipitation 06/26/2019 04:37 PM 06/26/2019 04:55 PM 0.000 0.000 0.000 0.000 0.000 Not Reported Not Reported
07/12/2019 10:13 PM 67.82 59.00 53.06 84.74 51.62 59.0 Not Reported 0.00 W 0.00 NW 0.67 W No 0.000 No Precipitation 06/26/2019 04:37 PM 06/26/2019 04:55 PM 0.000 0.000 0.000 0.000 0.000 Not Reported Not Reported
07/12/2019 10:18 PM 67.28 58.82 53.24 84.74 51.62 60.0 Not Reported 0.22 S 0.00 S 0.67 W No 0.000 No Precipitation 06/26/2019 04:37 PM 06/26/2019 04:55 PM 0.000 0.000 0.000 0.000 0.000 Not Reported Not Reported
07/12/2019 10:23 PM 67.10 58.82 53.24 84.74 51.62 60.0 Not Reported 0.45 W 0.89 W 0.67 S No 0.000 No Precipitation 06/26/2019 04:37 PM 06/26/2019 04:55 PM 0.000 0.000 0.000 0.000 0.000 Not Reported Not Reported
07/12/2019 10:28 PM 66.56 58.64 53.06 84.74 51.62 61.0 Not Reported 1.57 W 0.89 W 0.67 S No 0.000 No Precipitation 06/26/2019 04:37 PM 06/26/2019 04:55 PM 0.000 0.000 0.000 0.000 0.000 Not Reported Not Reported
07/12/2019 10:33 PM 66.38 58.64 53.24 84.74 51.62 62.0 Not Reported 0.45 W 1.34 W 2.24 W No 0.000 No Precipitation 06/26/2019 04:37 PM 06/26/2019 04:55 PM 0.000 0.000 0.000 0.000 0.000 Not Reported Not Reported
07/12/2019 10:38 PM 65.84 58.28 52.88 84.74 51.62 63.0 Not Reported 0.89 W 0.89 W 2.24 W No 0.000 No Precipitation 06/26/2019 04:37 PM 06/26/2019 04:55 PM 0.000 0.000 0.000 0.000 0.000 Not Reported Not Reported
07/12/2019 10:43 PM 65.48 57.92 52.70 84.74 51.62 63.0 Not Reported 2.24 W 2.24 W 1.57 W No 0.000 No Precipitation 06/26/2019 04:37 PM 06/26/2019 04:55 PM 0.000 0.000 0.000 0.000 0.000 Not Reported Not Reported
07/12/2019 10:48 PM 64.94 57.74 52.70 84.74 51.62 64.0 Not Reported 2.91 W 2.68 W 1.57 W No 0.000 No Precipitation 06/26/2019 04:37 PM 06/26/2019 04:55 PM 0.000 0.000 0.000 0.000 0.000 Not Reported Not Reported
07/12/2019 10:53 PM 64.76 57.56 52.34 84.74 51.62 64.0 Not Reported 3.13 W 3.80 W 3.80 W No 0.000 No Precipitation 06/26/2019 04:37 PM 06/26/2019 04:55 PM 0.000 0.000 0.000 0.000 0.000 Not Reported Not Reported
07/12/2019 10:58 PM 64.76 57.38 52.16 84.74 51.62 63.0 Not Reported 3.13 W 3.36 W 3.80 W No 0.000 No Precipitation 06/26/2019 04:37 PM 06/26/2019 04:55 PM 0.000 0.000 0.000 0.000 0.000 Not Reported Not Reported
07/12/2019 11:03 PM 64.40 57.20 52.16 84.74 51.62 64.0 Not Reported 3.36 W 2.68 W 4.03 NW No 0.000 No Precipitation 06/26/2019 04:37 PM 06/26/2019 04:55 PM 0.000 0.000 0.000 0.000 0.000 Not Reported Not Reported
07/12/2019 11:08 PM 63.86 57.02 52.34 84.74 51.62 65.0 Not Reported 3.58 W 3.58 W 4.03 NW No 0.000 No Precipitation 06/26/2019 04:37 PM 06/26/2019 04:55 PM 0.000 0.000 0.000 0.000 0.000 Not Reported Not Reported
07/12/2019 11:13 PM 63.68 56.84 51.98 84.74 51.62 65.0 Not Reported 3.13 W 3.13 W 4.03 W No 0.000 No Precipitation 06/26/2019 04:37 PM 06/26/2019 04:55 PM 0.000 0.000 0.000 0.000 0.000 Not Reported Not Reported
07/12/2019 11:18 PM 63.32 56.66 51.98 84.74 51.62 66.0 Not Reported 3.58 W 3.36 W 4.03 W No 0.000 No Precipitation 06/26/2019 04:37 PM 06/26/2019 04:55 PM 0.000 0.000 0.000 0.000 0.000 Not Reported Not Reported
07/12/2019 11:23 PM 63.32 56.66 51.98 84.74 51.62 66.0 Not Reported 3.13 W 3.36 W 3.80 W No 0.000 No Precipitation 06/26/2019 04:37 PM 06/26/2019 04:55 PM 0.000 0.000 0.000 0.000 0.000 Not Reported Not Reported
07/12/2019 11:28 PM 62.96 56.48 51.80 84.74 51.62 66.0 Not Reported 3.58 W 3.80 W 3.80 W No 0.000 No Precipitation 06/26/2019 04:37 PM 06/26/2019 04:55 PM 0.000 0.000 0.000 0.000 0.000 Not Reported Not Reported
07/12/2019 11:33 PM 62.78 56.30 51.62 84.74 51.62 66.0 Not Reported 4.25 W 3.58 W 4.70 W No 0.000 No Precipitation 06/26/2019 04:37 PM 06/26/2019 04:55 PM 0.000 0.000 0.000 0.000 0.000 Not Reported Not Reported
07/12/2019 11:38 PM 62.96 56.30 51.62 84.74 51.62 66.0 Not Reported 4.03 W 4.25 W 4.70 W No 0.000 No Precipitation 06/26/2019 04:37 PM 06/26/2019 04:55 PM 0.000 0.000 0.000 0.000 0.000 Not Reported Not Reported
07/12/2019 11:43 PM 62.96 56.30 51.62 84.74 51.62 66.0 Not Reported 4.25 W 4.47 SW 4.47 W No 0.000 No Precipitation 06/26/2019 04:37 PM 06/26/2019 04:55 PM 0.000 0.000 0.000 0.000 0.000 Not Reported Not Reported
07/12/2019 11:48 PM 63.14 56.30 51.44 84.74 51.62 65.0 Not Reported 3.80 W 3.80 SW 4.47 W No 0.000 No Precipitation 06/26/2019 04:37 PM 06/26/2019 04:55 PM 0.000 0.000 0.000 0.000 0.000 Not Reported Not Reported
07/12/2019 11:53 PM 62.96 56.12 51.26 84.74 51.62 65.0 Not Reported 4.25 SW 3.36 W 4.92 W No 0.000 No Precipitation 06/26/2019 04:37 PM 06/26/2019 04:55 PM 0.000 0.000 0.000 0.000 0.000 Not Reported Not Reported
07/12/2019 11:58 PM 62.96 56.12 51.26 84.74 51.62 65.0 Not Reported 3.13 W 3.36 W 4.92 W No 0.000 No Precipitation 06/26/2019 04:37 PM 06/26/2019 04:55 PM 0.000 0.000 0.000 0.000 0.000 Not Reported Not Reported